sensor_id;sensor_type;location;lat;lon;timestamp;temperature;humidity
9723;DHT22;4900;49.306;8.500;2023-01-29T00:01:02;1.59;71.52
9723;DHT22;4900;49.306;8.500;2023-01-29T00:04:05;1.58;71.52
9723;DHT22;4900;49.306;8.500;2023-01-29T00:07:08;1.56;71.53
9723;DHT22;4900;49.306;8.500;2023-01-29T00:10:11;1.55;71.69
9723;DHT22;4900;49.306;8.500;2023-01-29T00:13:15;1.55;71.67
9723;DHT22;4900;49.306;8.500;2023-01-29T00:16:18;1.54;71.79
9723;DHT22;4900;49.306;8.500;2023-01-29T00:19:21;1.54;71.81
9723;DHT22;4900;49.306;8.500;2023-01-29T00:22:24;1.52;72.01
9723;DHT22;4900;49.306;8.500;2023-01-29T00:25:26;1.52;72.04
9723;DHT22;4900;49.306;8.500;2023-01-29T00:28:29;1.51;72.03
9723;DHT22;4900;49.306;8.500;2023-01-29T00:31:33;1.48;71.86
9723;DHT22;4900;49.306;8.500;2023-01-29T00:34:36;1.48;71.87
9723;DHT22;4900;49.306;8.500;2023-01-29T00:37:39;1.44;71.97
9723;DHT22;4900;49.306;8.500;2023-01-29T00:40:42;1.44;71.98
9723;DHT22;4900;49.306;8.500;2023-01-29T00:44:05;1.35;71.98
9723;DHT22;4900;49.306;8.500;2023-01-29T00:47:27;1.31;72.24
9723;DHT22;4900;49.306;8.500;2023-01-29T00:50:33;1.27;72.47
9723;DHT22;4900;49.306;8.500;2023-01-29T00:53:35;1.26;72.52
9723;DHT22;4900;49.306;8.500;2023-01-29T00:56:38;1.26;72.52
9723;DHT22;4900;49.306;8.500;2023-01-29T00:59:41;1.24;72.52
9723;DHT22;4900;49.306;8.500;2023-01-29T01:02:44;1.23;72.37
9723;DHT22;4900;49.306;8.500;2023-01-29T01:06:09;1.24;72.41
9723;DHT22;4900;49.306;8.500;2023-01-29T01:09:12;1.19;72.32
9723;DHT22;4900;49.306;8.500;2023-01-29T01:12:34;1.20;72.40
9723;DHT22;4900;49.306;8.500;2023-01-29T01:15:39;1.21;72.46
9723;DHT22;4900;49.306;8.500;2023-01-29T01:18:44;1.21;72.59
9723;DHT22;4900;49.306;8.500;2023-01-29T01:21:47;1.21;72.70
9723;DHT22;4900;49.306;8.500;2023-01-29T01:24:50;1.19;72.81
9723;DHT22;4900;49.306;8.500;2023-01-29T01:27:54;1.17;72.70
9723;DHT22;4900;49.306;8.500;2023-01-29T01:31:07;1.20;72.83
9723;DHT22;4900;49.306;8.500;2023-01-29T01:34:10;1.21;72.79
9723;DHT22;4900;49.306;8.500;2023-01-29T01:37:13;1.23;72.79
9723;DHT22;4900;49.306;8.500;2023-01-29T01:40:21;1.23;72.81
9723;DHT22;4900;49.306;8.500;2023-01-29T01:43:24;1.23;72.74
9723;DHT22;4900;49.306;8.500;2023-01-29T01:46:32;1.26;72.80
9723;DHT22;4900;49.306;8.500;2023-01-29T01:49:35;1.20;72.85
9723;DHT22;4900;49.306;8.500;2023-01-29T01:52:44;1.24;72.68
9723;DHT22;4900;49.306;8.500;2023-01-29T01:55:52;1.27;72.59
9723;DHT22;4900;49.306;8.500;2023-01-29T01:58:58;1.28;72.52
9723;DHT22;4900;49.306;8.500;2023-01-29T02:02:01;1.31;72.45
9723;DHT22;4900;49.306;8.500;2023-01-29T02:05:22;1.34;72.41
9723;DHT22;4900;49.306;8.500;2023-01-29T02:09:04;1.34;72.60
9723;DHT22;4900;49.306;8.500;2023-01-29T02:12:28;1.33;72.59
9723;DHT22;4900;49.306;8.500;2023-01-29T02:15:33;1.31;72.42
9723;DHT22;4900;49.306;8.500;2023-01-29T02:18:36;1.28;72.54
9723;DHT22;4900;49.306;8.500;2023-01-29T02:25:02;1.27;72.73
9723;DHT22;4900;49.306;8.500;2023-01-29T02:32:01;1.20;72.51
9723;DHT22;4900;49.306;8.500;2023-01-29T02:42:16;1.14;72.63
9723;DHT22;4900;49.306;8.500;2023-01-29T02:45:41;1.13;72.86
9723;DHT22;4900;49.306;8.500;2023-01-29T02:52:25;1.03;72.94
9723;DHT22;4900;49.306;8.500;2023-01-29T02:56:12;0.96;72.97
9723;DHT22;4900;49.306;8.500;2023-01-29T02:59:23;0.83;72.86
9723;DHT22;4900;49.306;8.500;2023-01-29T03:02:37;0.75;72.95
9723;DHT22;4900;49.306;8.500;2023-01-29T03:06:06;0.61;72.91
9723;DHT22;4900;49.306;8.500;2023-01-29T03:09:24;0.51;72.92
9723;DHT22;4900;49.306;8.500;2023-01-29T03:12:29;0.33;72.92
9723;DHT22;4900;49.306;8.500;2023-01-29T03:15:44;0.19;72.94
9723;DHT22;4900;49.306;8.500;2023-01-29T03:18:52;0.06;73.16
9723;DHT22;4900;49.306;8.500;2023-01-29T03:21:58;-0.07;73.12
9723;DHT22;4900;49.306;8.500;2023-01-29T03:25:03;-0.14;73.31
9723;DHT22;4900;49.306;8.500;2023-01-29T03:28:27;-0.25;73.38
9723;DHT22;4900;49.306;8.500;2023-01-29T03:31:51;-0.33;73.36
9723;DHT22;4900;49.306;8.500;2023-01-29T03:35:09;-0.45;73.87
9723;DHT22;4900;49.306;8.500;2023-01-29T03:38:15;-0.48;74.06
9723;DHT22;4900;49.306;8.500;2023-01-29T03:41:56;-0.48;74.20
9723;DHT22;4900;49.306;8.500;2023-01-29T03:48:35;-0.54;74.56
9723;DHT22;4900;49.306;8.500;2023-01-29T03:51:54;-0.61;74.54
9723;DHT22;4900;49.306;8.500;2023-01-29T03:58:36;-0.71;74.67
9723;DHT22;4900;49.306;8.500;2023-01-29T04:01:44;-0.73;74.97
9723;DHT22;4900;49.306;8.500;2023-01-29T04:04:51;-0.74;74.94
9723;DHT22;4900;49.306;8.500;2023-01-29T04:08:01;-0.76;74.99
9723;DHT22;4900;49.306;8.500;2023-01-29T04:11:11;-0.78;75.03
9723;DHT22;4900;49.306;8.500;2023-01-29T04:14:16;-0.83;75.31
9723;DHT22;4900;49.306;8.500;2023-01-29T04:17:27;-0.83;75.46
9723;DHT22;4900;49.306;8.500;2023-01-29T04:20:34;-0.87;75.62
9723;DHT22;4900;49.306;8.500;2023-01-29T04:23:38;-0.81;75.81
9723;DHT22;4900;49.306;8.500;2023-01-29T04:27:06;-0.78;75.92
9723;DHT22;4900;49.306;8.500;2023-01-29T04:30:25;-0.73;76.05
9723;DHT22;4900;49.306;8.500;2023-01-29T04:36:40;-0.67;76.22
9723;DHT22;4900;49.306;8.500;2023-01-29T04:43:06;-0.59;76.38
9723;DHT22;4900;49.306;8.500;2023-01-29T04:46:19;-0.54;76.34
9723;DHT22;4900;49.306;8.500;2023-01-29T04:49:48;-0.52;76.41
9723;DHT22;4900;49.306;8.500;2023-01-29T04:53:29;-0.52;76.52
9723;DHT22;4900;49.306;8.500;2023-01-29T05:00:17;-0.42;76.57
9723;DHT22;4900;49.306;8.500;2023-01-29T05:03:23;-0.40;76.44
9723;DHT22;4900;49.306;8.500;2023-01-29T05:06:29;-0.36;76.31
9723;DHT22;4900;49.306;8.500;2023-01-29T05:09:33;-0.35;76.26
9723;DHT22;4900;49.306;8.500;2023-01-29T05:12:39;-0.38;76.14
9723;DHT22;4900;49.306;8.500;2023-01-29T05:16:32;-0.45;75.92
9723;DHT22;4900;49.306;8.500;2023-01-29T05:19:15;-0.52;75.76
9723;DHT22;4900;49.306;8.500;2023-01-29T05:22:19;-0.53;75.63
9723;DHT22;4900;49.306;8.500;2023-01-29T05:25:27;-0.59;75.45
9723;DHT22;4900;49.306;8.500;2023-01-29T05:28:31;-0.64;75.35
9723;DHT22;4900;49.306;8.500;2023-01-29T05:31:33;-0.71;75.38
9723;DHT22;4900;49.306;8.500;2023-01-29T05:34:36;-0.76;75.23
9723;DHT22;4900;49.306;8.500;2023-01-29T05:37:40;-0.77;75.27
9723;DHT22;4900;49.306;8.500;2023-01-29T05:40:43;-0.80;75.25
9723;DHT22;4900;49.306;8.500;2023-01-29T05:43:46;-0.84;75.53
9723;DHT22;4900;49.306;8.500;2023-01-29T05:46:49;-0.85;75.75
9723;DHT22;4900;49.306;8.500;2023-01-29T05:49:52;-0.84;75.87
9723;DHT22;4900;49.306;8.500;2023-01-29T05:52:57;-0.83;76.16
9723;DHT22;4900;49.306;8.500;2023-01-29T05:56:01;-0.78;76.39
9723;DHT22;4900;49.306;8.500;2023-01-29T05:59:04;-0.74;76.36
9723;DHT22;4900;49.306;8.500;2023-01-29T06:02:08;-0.73;76.46
9723;DHT22;4900;49.306;8.500;2023-01-29T06:05:10;-0.70;76.55
9723;DHT22;4900;49.306;8.500;2023-01-29T06:08:13;-0.64;76.59
9723;DHT22;4900;49.306;8.500;2023-01-29T06:11:16;-0.61;76.54
9723;DHT22;4900;49.306;8.500;2023-01-29T06:14:20;-0.57;76.50
9723;DHT22;4900;49.306;8.500;2023-01-29T06:17:23;-0.54;76.44
9723;DHT22;4900;49.306;8.500;2023-01-29T06:20:26;-0.50;76.41
9723;DHT22;4900;49.306;8.500;2023-01-29T06:23:30;-0.52;76.25
9723;DHT22;4900;49.306;8.500;2023-01-29T06:26:33;-0.53;76.22
9723;DHT22;4900;49.306;8.500;2023-01-29T06:29:35;-0.53;76.15
9723;DHT22;4900;49.306;8.500;2023-01-29T06:32:38;-0.54;76.23
9723;DHT22;4900;49.306;8.500;2023-01-29T06:35:41;-0.52;76.18
9723;DHT22;4900;49.306;8.500;2023-01-29T06:38:44;-0.54;76.28
9723;DHT22;4900;49.306;8.500;2023-01-29T06:41:47;-0.52;76.38
9723;DHT22;4900;49.306;8.500;2023-01-29T06:44:50;-0.48;76.45
9723;DHT22;4900;49.306;8.500;2023-01-29T06:47:53;-0.45;76.55
9723;DHT22;4900;49.306;8.500;2023-01-29T06:51:03;-0.39;76.59
9723;DHT22;4900;49.306;8.500;2023-01-29T06:54:08;-0.33;76.53
9723;DHT22;4900;49.306;8.500;2023-01-29T06:57:12;-0.29;76.44
9723;DHT22;4900;49.306;8.500;2023-01-29T07:00:15;-0.26;76.38
9723;DHT22;4900;49.306;8.500;2023-01-29T07:03:18;-0.26;76.28
9723;DHT22;4900;49.306;8.500;2023-01-29T07:06:28;-0.23;76.17
9723;DHT22;4900;49.306;8.500;2023-01-29T07:09:32;-0.23;76.13
9723;DHT22;4900;49.306;8.500;2023-01-29T07:12:34;-0.22;76.11
9723;DHT22;4900;49.306;8.500;2023-01-29T07:15:37;-0.19;75.92
9723;DHT22;4900;49.306;8.500;2023-01-29T07:18:40;-0.19;75.70
9723;DHT22;4900;49.306;8.500;2023-01-29T07:21:43;-0.22;75.66
9723;DHT22;4900;49.306;8.500;2023-01-29T07:24:46;-0.23;75.74
9723;DHT22;4900;49.306;8.500;2023-01-29T07:27:50;-0.22;75.68
9723;DHT22;4900;49.306;8.500;2023-01-29T07:30:57;-0.18;75.78
9723;DHT22;4900;49.306;8.500;2023-01-29T07:34:01;-0.12;75.65
9723;DHT22;4900;49.306;8.500;2023-01-29T07:37:04;-0.08;75.57
9723;DHT22;4900;49.306;8.500;2023-01-29T07:40:08;-0.10;75.41
9723;DHT22;4900;49.306;8.500;2023-01-29T07:43:13;-0.11;75.32
9723;DHT22;4900;49.306;8.500;2023-01-29T07:46:16;-0.08;75.26
9723;DHT22;4900;49.306;8.500;2023-01-29T07:49:19;-0.11;75.13
9723;DHT22;4900;49.306;8.500;2023-01-29T07:52:22;-0.14;74.96
9723;DHT22;4900;49.306;8.500;2023-01-29T07:55:25;-0.14;74.93
9723;DHT22;4900;49.306;8.500;2023-01-29T07:58:28;-0.15;74.96
9723;DHT22;4900;49.306;8.500;2023-01-29T08:01:31;-0.18;74.75
9723;DHT22;4900;49.306;8.500;2023-01-29T08:04:34;-0.23;74.67
9723;DHT22;4900;49.306;8.500;2023-01-29T08:07:37;-0.29;74.75
9723;DHT22;4900;49.306;8.500;2023-01-29T08:10:40;-0.31;74.78
9723;DHT22;4900;49.306;8.500;2023-01-29T08:13:43;-0.32;74.74
9723;DHT22;4900;49.306;8.500;2023-01-29T08:16:49;-0.32;74.73
9723;DHT22;4900;49.306;8.500;2023-01-29T08:19:52;-0.32;74.76
9723;DHT22;4900;49.306;8.500;2023-01-29T08:23:03;-0.31;74.78
9723;DHT22;4900;49.306;8.500;2023-01-29T08:26:06;-0.21;74.73
9723;DHT22;4900;49.306;8.500;2023-01-29T08:29:10;-0.14;74.81
9723;DHT22;4900;49.306;8.500;2023-01-29T08:32:13;-0.05;74.75
9723;DHT22;4900;49.306;8.500;2023-01-29T08:35:16;0.00;74.70
9723;DHT22;4900;49.306;8.500;2023-01-29T08:38:19;0.07;74.78
9723;DHT22;4900;49.306;8.500;2023-01-29T08:41:22;0.19;74.74
9723;DHT22;4900;49.306;8.500;2023-01-29T08:44:25;0.27;74.55
9723;DHT22;4900;49.306;8.500;2023-01-29T08:47:28;0.36;74.55
9723;DHT22;4900;49.306;8.500;2023-01-29T08:50:31;0.42;74.62
9723;DHT22;4900;49.306;8.500;2023-01-29T08:53:36;0.54;74.48
9723;DHT22;4900;49.306;8.500;2023-01-29T08:56:39;0.65;74.39
9723;DHT22;4900;49.306;8.500;2023-01-29T08:59:43;0.79;74.32
9723;DHT22;4900;49.306;8.500;2023-01-29T09:02:46;0.92;74.14
9723;DHT22;4900;49.306;8.500;2023-01-29T09:05:49;0.97;73.87
9723;DHT22;4900;49.306;8.500;2023-01-29T09:08:52;1.06;73.73
9723;DHT22;4900;49.306;8.500;2023-01-29T09:11:55;1.16;73.49
9723;DHT22;4900;49.306;8.500;2023-01-29T09:14:58;1.28;73.13
9723;DHT22;4900;49.306;8.500;2023-01-29T09:18:03;1.38;72.89
9723;DHT22;4900;49.306;8.500;2023-01-29T09:21:06;1.52;72.90
9723;DHT22;4900;49.306;8.500;2023-01-29T09:24:09;1.62;72.39
9723;DHT22;4900;49.306;8.500;2023-01-29T09:27:12;1.85;72.35
9723;DHT22;4900;49.306;8.500;2023-01-29T09:30:16;2.01;71.99
9723;DHT22;4900;49.306;8.500;2023-01-29T09:33:20;2.21;71.58
9723;DHT22;4900;49.306;8.500;2023-01-29T09:36:23;2.48;71.07
9723;DHT22;4900;49.306;8.500;2023-01-29T09:39:26;2.75;70.84
9723;DHT22;4900;49.306;8.500;2023-01-29T09:42:43;2.94;69.70
9723;DHT22;4900;49.306;8.500;2023-01-29T09:46:14;3.18;69.49
9723;DHT22;4900;49.306;8.500;2023-01-29T09:49:27;3.48;68.49
9723;DHT22;4900;49.306;8.500;2023-01-29T09:52:45;3.86;67.86
9723;DHT22;4900;49.306;8.500;2023-01-29T09:56:13;4.22;67.33
9723;DHT22;4900;49.306;8.500;2023-01-29T09:59:17;4.50;66.93
9723;DHT22;4900;49.306;8.500;2023-01-29T10:18:52;5.37;62.01
9723;DHT22;4900;49.306;8.500;2023-01-29T10:25:23;5.32;62.58
9723;DHT22;4900;49.306;8.500;2023-01-29T10:28:36;5.47;62.21
9723;DHT22;4900;49.306;8.500;2023-01-29T10:31:41;5.47;61.79
9723;DHT22;4900;49.306;8.500;2023-01-29T10:34:58;5.59;61.73
9723;DHT22;4900;49.306;8.500;2023-01-29T10:41:58;5.85;61.11
9723;DHT22;4900;49.306;8.500;2023-01-29T10:52:44;6.33;60.09
9723;DHT22;4900;49.306;8.500;2023-01-29T10:56:01;6.40;60.03
9723;DHT22;4900;49.306;8.500;2023-01-29T11:00:08;6.25;58.40
9723;DHT22;4900;49.306;8.500;2023-01-29T11:02:51;6.23;58.58
9723;DHT22;4900;49.306;8.500;2023-01-29T11:06:11;6.32;59.44
9723;DHT22;4900;49.306;8.500;2023-01-29T11:09:29;6.26;59.74
9723;DHT22;4900;49.306;8.500;2023-01-29T11:12:36;6.27;59.04
9723;DHT22;4900;49.306;8.500;2023-01-29T11:15:40;6.40;59.44
9723;DHT22;4900;49.306;8.500;2023-01-29T11:18:52;6.55;59.50
9723;DHT22;4900;49.306;8.500;2023-01-29T11:22:00;6.63;58.89
9723;DHT22;4900;49.306;8.500;2023-01-29T11:25:17;6.92;59.30
9723;DHT22;4900;49.306;8.500;2023-01-29T11:28:41;7.17;58.76
9723;DHT22;4900;49.306;8.500;2023-01-29T11:31:45;7.34;58.23
9723;DHT22;4900;49.306;8.500;2023-01-29T11:35:03;7.69;57.35
9723;DHT22;4900;49.306;8.500;2023-01-29T11:38:20;7.86;57.00
9723;DHT22;4900;49.306;8.500;2023-01-29T11:41:25;7.85;54.60
9723;DHT22;4900;49.306;8.500;2023-01-29T11:44:41;8.07;54.38
9723;DHT22;4900;49.306;8.500;2023-01-29T11:47:48;8.16;54.60
9723;DHT22;4900;49.306;8.500;2023-01-29T11:50:56;8.07;54.23
9723;DHT22;4900;49.306;8.500;2023-01-29T11:54:03;8.38;53.62
9723;DHT22;4900;49.306;8.500;2023-01-29T11:57:22;8.35;53.92
9723;DHT22;4900;49.306;8.500;2023-01-29T12:00:29;8.31;52.85
9723;DHT22;4900;49.306;8.500;2023-01-29T12:03:38;8.49;52.84
9723;DHT22;4900;49.306;8.500;2023-01-29T12:06:43;8.54;52.46
9723;DHT22;4900;49.306;8.500;2023-01-29T12:09:55;8.73;53.00
9723;DHT22;4900;49.306;8.500;2023-01-29T12:13:16;8.77;52.51
9723;DHT22;4900;49.306;8.500;2023-01-29T12:16:32;8.82;52.45
9723;DHT22;4900;49.306;8.500;2023-01-29T12:19:46;8.72;51.86
9723;DHT22;4900;49.306;8.500;2023-01-29T12:23:05;8.86;52.95
9723;DHT22;4900;49.306;8.500;2023-01-29T12:26:19;8.96;52.25
9723;DHT22;4900;49.306;8.500;2023-01-29T12:33:25;8.80;51.59
9723;DHT22;4900;49.306;8.500;2023-01-29T12:36:35;8.86;51.08
9723;DHT22;4900;49.306;8.500;2023-01-29T12:39:39;8.68;50.70
9723;DHT22;4900;49.306;8.500;2023-01-29T12:42:48;8.82;50.85
9723;DHT22;4900;49.306;8.500;2023-01-29T12:45:54;8.97;50.97
9723;DHT22;4900;49.306;8.500;2023-01-29T12:49:02;8.88;50.15
9723;DHT22;4900;49.306;8.500;2023-01-29T12:55:58;8.89;50.65
9723;DHT22;4900;49.306;8.500;2023-01-29T13:02:42;8.75;50.78
9723;DHT22;4900;49.306;8.500;2023-01-29T13:05:55;8.77;51.35
9723;DHT22;4900;49.306;8.500;2023-01-29T13:09:11;8.80;51.08
9723;DHT22;4900;49.306;8.500;2023-01-29T13:12:17;8.75;51.63
9723;DHT22;4900;49.306;8.500;2023-01-29T13:15:30;8.92;52.65
9723;DHT22;4900;49.306;8.500;2023-01-29T13:18:52;9.11;52.63
9723;DHT22;4900;49.306;8.500;2023-01-29T13:22:00;9.31;52.90
9723;DHT22;4900;49.306;8.500;2023-01-29T13:25:05;9.30;51.57
9723;DHT22;4900;49.306;8.500;2023-01-29T13:28:22;9.42;52.36
9723;DHT22;4900;49.306;8.500;2023-01-29T13:31:36;9.41;52.94
9723;DHT22;4900;49.306;8.500;2023-01-29T13:34:44;9.25;51.18
9723;DHT22;4900;49.306;8.500;2023-01-29T13:37:53;9.20;52.44
9723;DHT22;4900;49.306;8.500;2023-01-29T13:41:04;9.10;52.29
9723;DHT22;4900;49.306;8.500;2023-01-29T13:44:22;9.08;52.76
9723;DHT22;4900;49.306;8.500;2023-01-29T13:47:29;8.95;52.42
9723;DHT22;4900;49.306;8.500;2023-01-29T13:50:39;8.97;53.67
9723;DHT22;4900;49.306;8.500;2023-01-29T13:53:53;9.11;53.33
9723;DHT22;4900;49.306;8.500;2023-01-29T13:56:59;9.16;54.04
9723;DHT22;4900;49.306;8.500;2023-01-29T14:00:04;9.27;53.79
9723;DHT22;4900;49.306;8.500;2023-01-29T14:06:40;9.66;54.35
9723;DHT22;4900;49.306;8.500;2023-01-29T14:12:50;9.63;52.78
9723;DHT22;4900;49.306;8.500;2023-01-29T14:19:02;9.63;53.41
9723;DHT22;4900;49.306;8.500;2023-01-29T14:22:14;9.61;53.75
9723;DHT22;4900;49.306;8.500;2023-01-29T14:25:26;9.38;52.87
9723;DHT22;4900;49.306;8.500;2023-01-29T14:28:31;9.17;52.74
9723;DHT22;4900;49.306;8.500;2023-01-29T14:34:49;8.56;53.36
9723;DHT22;4900;49.306;8.500;2023-01-29T14:37:57;8.26;53.23
9723;DHT22;4900;49.306;8.500;2023-01-29T14:41:06;7.89;53.22
9723;DHT22;4900;49.306;8.500;2023-01-29T14:50:52;7.31;54.39
9723;DHT22;4900;49.306;8.500;2023-01-29T14:54:04;7.19;54.87
9723;DHT22;4900;49.306;8.500;2023-01-29T14:57:15;7.00;55.24
9723;DHT22;4900;49.306;8.500;2023-01-29T15:00:27;6.75;54.66
9723;DHT22;4900;49.306;8.500;2023-01-29T15:10:16;6.02;56.38
9723;DHT22;4900;49.306;8.500;2023-01-29T15:13:34;5.81;57.52
9723;DHT22;4900;49.306;8.500;2023-01-29T15:19:57;5.36;58.12
9723;DHT22;4900;49.306;8.500;2023-01-29T15:23:02;5.18;58.93
9723;DHT22;4900;49.306;8.500;2023-01-29T15:26:12;5.01;59.43
9723;DHT22;4900;49.306;8.500;2023-01-29T15:29:25;4.78;60.16
9723;DHT22;4900;49.306;8.500;2023-01-29T15:32:35;4.67;60.75
9723;DHT22;4900;49.306;8.500;2023-01-29T15:35:40;4.52;61.36
9723;DHT22;4900;49.306;8.500;2023-01-29T15:38:44;4.39;61.66
9723;DHT22;4900;49.306;8.500;2023-01-29T15:42:07;4.22;62.12
9723;DHT22;4900;49.306;8.500;2023-01-29T15:45:24;4.04;62.63
9723;DHT22;4900;49.306;8.500;2023-01-29T15:48:35;3.88;63.08
9723;DHT22;4900;49.306;8.500;2023-01-29T15:51:40;3.79;63.24
9723;DHT22;4900;49.306;8.500;2023-01-29T15:54:43;3.66;63.00
9723;DHT22;4900;49.306;8.500;2023-01-29T15:57:47;3.55;63.62
9723;DHT22;4900;49.306;8.500;2023-01-29T16:00:55;3.43;63.98
9723;DHT22;4900;49.306;8.500;2023-01-29T16:04:00;3.26;64.44
9723;DHT22;4900;49.306;8.500;2023-01-29T16:07:04;3.14;64.84
9723;DHT22;4900;49.306;8.500;2023-01-29T16:10:19;2.97;65.22
9723;DHT22;4900;49.306;8.500;2023-01-29T16:13:35;2.81;65.54
9723;DHT22;4900;49.306;8.500;2023-01-29T16:16:40;2.68;65.58
9723;DHT22;4900;49.306;8.500;2023-01-29T16:19:58;2.52;65.90
9723;DHT22;4900;49.306;8.500;2023-01-29T16:23:03;2.40;66.63
9723;DHT22;4900;49.306;8.500;2023-01-29T16:26:11;2.34;66.83
9723;DHT22;4900;49.306;8.500;2023-01-29T16:29:21;2.25;67.07
9723;DHT22;4900;49.306;8.500;2023-01-29T16:32:24;2.21;67.19
9723;DHT22;4900;49.306;8.500;2023-01-29T16:35:28;2.14;67.48
9723;DHT22;4900;49.306;8.500;2023-01-29T16:38:32;2.07;67.58
9723;DHT22;4900;49.306;8.500;2023-01-29T16:41:36;2.00;67.85
9723;DHT22;4900;49.306;8.500;2023-01-29T16:48:24;1.86;68.35
9723;DHT22;4900;49.306;8.500;2023-01-29T16:51:37;1.82;68.54
9723;DHT22;4900;49.306;8.500;2023-01-29T16:54:43;1.78;68.79
9723;DHT22;4900;49.306;8.500;2023-01-29T16:57:51;1.70;69.04
9723;DHT22;4900;49.306;8.500;2023-01-29T17:01:06;1.66;69.27
9723;DHT22;4900;49.306;8.500;2023-01-29T17:04:16;1.62;69.43
9723;DHT22;4900;49.306;8.500;2023-01-29T17:07:20;1.56;69.45
9723;DHT22;4900;49.306;8.500;2023-01-29T17:10:28;1.55;69.58
9723;DHT22;4900;49.306;8.500;2023-01-29T17:13:36;1.42;70.12
9723;DHT22;4900;49.306;8.500;2023-01-29T17:16:55;1.40;70.52
9723;DHT22;4900;49.306;8.500;2023-01-29T17:20:15;1.34;70.64
9723;DHT22;4900;49.306;8.500;2023-01-29T17:23:19;1.34;70.72
9723;DHT22;4900;49.306;8.500;2023-01-29T17:26:22;1.30;71.06
9723;DHT22;4900;49.306;8.500;2023-01-29T17:29:29;1.28;71.17
9723;DHT22;4900;49.306;8.500;2023-01-29T17:32:32;1.28;71.19
9723;DHT22;4900;49.306;8.500;2023-01-29T17:35:36;1.28;71.33
9723;DHT22;4900;49.306;8.500;2023-01-29T17:38:39;1.23;71.30
9723;DHT22;4900;49.306;8.500;2023-01-29T17:41:46;1.21;71.45
9723;DHT22;4900;49.306;8.500;2023-01-29T17:44:50;1.17;71.66
9723;DHT22;4900;49.306;8.500;2023-01-29T17:47:53;1.17;71.64
9723;DHT22;4900;49.306;8.500;2023-01-29T17:51:02;1.19;71.60
9723;DHT22;4900;49.306;8.500;2023-01-29T17:54:06;1.17;71.74
9723;DHT22;4900;49.306;8.500;2023-01-29T17:57:13;1.13;71.51
9723;DHT22;4900;49.306;8.500;2023-01-29T18:00:22;1.06;71.96
9723;DHT22;4900;49.306;8.500;2023-01-29T18:03:28;1.03;72.01
9723;DHT22;4900;49.306;8.500;2023-01-29T18:06:32;1.03;72.00
9723;DHT22;4900;49.306;8.500;2023-01-29T18:09:35;0.99;71.92
9723;DHT22;4900;49.306;8.500;2023-01-29T18:12:39;0.89;71.89
9723;DHT22;4900;49.306;8.500;2023-01-29T18:15:42;0.86;71.99
9723;DHT22;4900;49.306;8.500;2023-01-29T18:18:46;0.79;71.81
9723;DHT22;4900;49.306;8.500;2023-01-29T18:21:49;0.73;71.93
9723;DHT22;4900;49.306;8.500;2023-01-29T18:24:52;0.64;71.95
9723;DHT22;4900;49.306;8.500;2023-01-29T18:27:56;0.61;71.93
9723;DHT22;4900;49.306;8.500;2023-01-29T18:31:03;0.51;72.17
9723;DHT22;4900;49.306;8.500;2023-01-29T18:34:07;0.44;72.25
9723;DHT22;4900;49.306;8.500;2023-01-29T18:37:10;0.37;72.63
9723;DHT22;4900;49.306;8.500;2023-01-29T18:40:14;0.36;72.98
9723;DHT22;4900;49.306;8.500;2023-01-29T18:43:19;0.37;73.19
9723;DHT22;4900;49.306;8.500;2023-01-29T18:46:25;0.36;73.41
9723;DHT22;4900;49.306;8.500;2023-01-29T18:49:28;0.33;73.50
9723;DHT22;4900;49.306;8.500;2023-01-29T18:52:31;0.33;73.97
9723;DHT22;4900;49.306;8.500;2023-01-29T18:55:38;0.33;74.06
9723;DHT22;4900;49.306;8.500;2023-01-29T18:58:41;0.34;74.18
9723;DHT22;4900;49.306;8.500;2023-01-29T19:01:45;0.36;74.15
9723;DHT22;4900;49.306;8.500;2023-01-29T19:04:49;0.34;74.13
9723;DHT22;4900;49.306;8.500;2023-01-29T19:07:57;0.34;74.37
9723;DHT22;4900;49.306;8.500;2023-01-29T19:11:04;0.33;74.50
9723;DHT22;4900;49.306;8.500;2023-01-29T19:14:09;0.34;74.67
9723;DHT22;4900;49.306;8.500;2023-01-29T19:17:16;0.33;74.69
9723;DHT22;4900;49.306;8.500;2023-01-29T19:20:19;0.36;74.84
9723;DHT22;4900;49.306;8.500;2023-01-29T19:23:22;0.36;74.90
9723;DHT22;4900;49.306;8.500;2023-01-29T19:26:25;0.34;75.07
9723;DHT22;4900;49.306;8.500;2023-01-29T19:29:29;0.37;75.15
9723;DHT22;4900;49.306;8.500;2023-01-29T19:32:32;0.37;75.28
9723;DHT22;4900;49.306;8.500;2023-01-29T19:35:36;0.38;75.13
9723;DHT22;4900;49.306;8.500;2023-01-29T19:38:40;0.40;75.01
9723;DHT22;4900;49.306;8.500;2023-01-29T19:41:43;0.37;74.80
9723;DHT22;4900;49.306;8.500;2023-01-29T19:44:47;0.33;74.78
9723;DHT22;4900;49.306;8.500;2023-01-29T19:47:55;0.27;74.67
9723;DHT22;4900;49.306;8.500;2023-01-29T19:51:01;0.23;74.50
9723;DHT22;4900;49.306;8.500;2023-01-29T19:54:06;0.17;74.53
9723;DHT22;4900;49.306;8.500;2023-01-29T19:57:10;0.13;74.63
9723;DHT22;4900;49.306;8.500;2023-01-29T20:00:13;0.09;74.65
9723;DHT22;4900;49.306;8.500;2023-01-29T20:03:19;0.07;75.09
9723;DHT22;4900;49.306;8.500;2023-01-29T20:06:27;0.02;75.35
9723;DHT22;4900;49.306;8.500;2023-01-29T20:09:35;0.05;75.66
9723;DHT22;4900;49.306;8.500;2023-01-29T20:12:38;0.05;75.75
9723;DHT22;4900;49.306;8.500;2023-01-29T20:15:46;0.05;75.71
9723;DHT22;4900;49.306;8.500;2023-01-29T20:18:50;0.02;75.63
9723;DHT22;4900;49.306;8.500;2023-01-29T20:21:56;0.00;75.51
9723;DHT22;4900;49.306;8.500;2023-01-29T20:24:59;-0.04;75.41
9723;DHT22;4900;49.306;8.500;2023-01-29T20:28:08;-0.07;75.67
9723;DHT22;4900;49.306;8.500;2023-01-29T20:31:14;-0.10;75.60
9723;DHT22;4900;49.306;8.500;2023-01-29T20:34:17;-0.15;75.73
9723;DHT22;4900;49.306;8.500;2023-01-29T20:37:21;-0.15;75.94
9723;DHT22;4900;49.306;8.500;2023-01-29T20:40:24;-0.15;75.93
9723;DHT22;4900;49.306;8.500;2023-01-29T20:43:28;-0.17;76.03
9723;DHT22;4900;49.306;8.500;2023-01-29T20:46:32;-0.18;76.25
9723;DHT22;4900;49.306;8.500;2023-01-29T20:49:37;-0.18;76.51
9723;DHT22;4900;49.306;8.500;2023-01-29T20:52:41;-0.18;76.79
9723;DHT22;4900;49.306;8.500;2023-01-29T20:55:44;-0.17;76.91
9723;DHT22;4900;49.306;8.500;2023-01-29T20:58:47;-0.17;77.24
9723;DHT22;4900;49.306;8.500;2023-01-29T21:01:51;-0.15;77.49
9723;DHT22;4900;49.306;8.500;2023-01-29T21:04:54;-0.12;77.39
9723;DHT22;4900;49.306;8.500;2023-01-29T21:07:58;-0.12;77.47
9723;DHT22;4900;49.306;8.500;2023-01-29T21:11:03;-0.11;77.36
9723;DHT22;4900;49.306;8.500;2023-01-29T21:14:07;-0.10;77.36
9723;DHT22;4900;49.306;8.500;2023-01-29T21:17:10;-0.10;77.32
9723;DHT22;4900;49.306;8.500;2023-01-29T21:20:14;-0.08;77.34
9723;DHT22;4900;49.306;8.500;2023-01-29T21:23:17;-0.07;77.27
9723;DHT22;4900;49.306;8.500;2023-01-29T21:26:20;-0.05;77.23
9723;DHT22;4900;49.306;8.500;2023-01-29T21:29:25;-0.08;76.89
9723;DHT22;4900;49.306;8.500;2023-01-29T21:32:30;-0.08;77.13
9723;DHT22;4900;49.306;8.500;2023-01-29T21:35:34;-0.11;77.03
9723;DHT22;4900;49.306;8.500;2023-01-29T21:38:39;-0.11;77.13
9723;DHT22;4900;49.306;8.500;2023-01-29T21:41:43;-0.14;77.02
9723;DHT22;4900;49.306;8.500;2023-01-29T21:45:06;-0.15;77.28
9723;DHT22;4900;49.306;8.500;2023-01-29T21:48:10;-0.15;77.27
9723;DHT22;4900;49.306;8.500;2023-01-29T21:51:13;-0.12;77.63
9723;DHT22;4900;49.306;8.500;2023-01-29T21:54:17;-0.14;77.80
9723;DHT22;4900;49.306;8.500;2023-01-29T21:57:20;-0.11;77.70
9723;DHT22;4900;49.306;8.500;2023-01-29T22:00:28;-0.14;77.87
9723;DHT22;4900;49.306;8.500;2023-01-29T22:03:31;-0.14;77.45
9723;DHT22;4900;49.306;8.500;2023-01-29T22:06:35;-0.15;77.34
9723;DHT22;4900;49.306;8.500;2023-01-29T22:09:38;-0.19;77.27
9723;DHT22;4900;49.306;8.500;2023-01-29T22:12:42;-0.19;77.55
9723;DHT22;4900;49.306;8.500;2023-01-29T22:15:46;-0.21;77.78
9723;DHT22;4900;49.306;8.500;2023-01-29T22:18:50;-0.19;78.06
9723;DHT22;4900;49.306;8.500;2023-01-29T22:21:54;-0.17;78.19
9723;DHT22;4900;49.306;8.500;2023-01-29T22:24:57;-0.18;78.38
9723;DHT22;4900;49.306;8.500;2023-01-29T22:28:01;-0.17;78.49